createdAt,value
2023-04-27T00:01:12.004Z,13.89
2023-04-27T00:03:39.334Z,13.82
2023-04-27T00:06:06.317Z,13.87
2023-04-27T00:08:33.070Z,13.80
2023-04-27T00:11:00.614Z,13.66
2023-04-27T00:13:27.743Z,13.64
2023-04-27T00:15:54.560Z,13.46
2023-04-27T00:18:21.290Z,13.43
2023-04-27T00:20:48.184Z,13.43
2023-04-27T00:23:14.857Z,13.47
2023-04-27T00:25:41.594Z,13.48
2023-04-27T00:28:08.272Z,13.45
2023-04-27T00:30:35.871Z,13.42
2023-04-27T00:33:02.630Z,13.36
2023-04-27T00:35:29.339Z,13.32
2023-04-27T00:37:58.283Z,13.32
2023-04-27T00:40:24.900Z,13.20
2023-04-27T00:42:52.646Z,13.16
2023-04-27T00:45:19.374Z,13.15
2023-04-27T00:47:46.219Z,13.21
2023-04-27T00:50:13.034Z,13.22
2023-04-27T00:52:39.728Z,13.23
2023-04-27T00:55:07.174Z,13.25
2023-04-27T00:57:34.202Z,13.20
2023-04-27T01:00:02.198Z,13.19
2023-04-27T01:02:30.264Z,13.19
2023-04-27T01:04:57.509Z,13.19
2023-04-27T01:07:27.778Z,13.13
2023-04-27T01:09:54.473Z,13.22
2023-04-27T01:12:21.254Z,13.32
2023-04-27T01:14:48.875Z,13.35
2023-04-27T01:17:15.627Z,13.36
2023-04-27T01:19:42.352Z,13.38
2023-04-27T01:22:10.263Z,13.33
2023-04-27T01:24:38.025Z,13.27
2023-04-27T01:27:05.492Z,13.20
2023-04-27T01:29:32.430Z,13.28
2023-04-27T01:31:59.338Z,13.31
2023-04-27T01:34:26.041Z,13.18
2023-04-27T01:36:52.681Z,13.18
2023-04-27T01:39:21.477Z,13.19
2023-04-27T01:41:48.446Z,13.31
2023-04-27T01:44:15.223Z,13.22
2023-04-27T01:46:42.010Z,13.22
2023-04-27T01:49:08.780Z,13.18
2023-04-27T01:51:35.608Z,13.20
2023-04-27T01:54:02.234Z,13.18
2023-04-27T01:56:28.881Z,13.23
2023-04-27T01:58:56.035Z,13.22
2023-04-27T02:01:22.882Z,13.15
2023-04-27T02:03:49.856Z,13.10
2023-04-27T02:06:16.719Z,13.14
2023-04-27T02:08:43.439Z,13.20
2023-04-27T02:11:10.306Z,13.19
2023-04-27T02:13:37.039Z,13.17
2023-04-27T02:16:05.189Z,13.10
2023-04-27T02:18:33.668Z,13.09
2023-04-27T02:23:27.581Z,13.06
2023-04-27T02:25:54.316Z,13.02
2023-04-27T02:28:21.125Z,13.05
2023-04-27T02:30:48.408Z,13.08
2023-04-27T02:33:15.129Z,13.09
2023-04-27T02:35:41.794Z,13.09
2023-04-27T02:38:08.530Z,13.11
2023-04-27T02:40:37.699Z,13.02
2023-04-27T02:43:06.457Z,12.96
2023-04-27T02:45:37.889Z,12.87
2023-04-27T02:48:06.223Z,12.80
2023-04-27T02:50:34.125Z,12.71
2023-04-27T02:53:04.078Z,12.69
2023-04-27T02:55:30.861Z,12.70
2023-04-27T02:57:57.474Z,12.73
2023-04-27T03:00:24.403Z,12.75
2023-04-27T03:02:51.267Z,12.78
2023-04-27T03:05:18.789Z,12.82
2023-04-27T03:07:45.370Z,12.80
2023-04-27T03:10:12.091Z,12.65
2023-04-27T03:12:38.725Z,12.66
2023-04-27T03:15:06.049Z,12.67
2023-04-27T03:17:35.872Z,12.73
2023-04-27T03:20:04.895Z,12.76
2023-04-27T03:22:31.524Z,12.77
2023-04-27T03:24:58.197Z,12.75
2023-04-27T03:27:24.806Z,12.77
2023-04-27T03:29:53.592Z,12.75
2023-04-27T03:32:20.289Z,12.77
2023-04-27T03:34:46.956Z,12.68
2023-04-27T03:37:13.599Z,12.59
2023-04-27T03:39:40.476Z,12.61
2023-04-27T03:42:09.602Z,12.60
2023-04-27T03:44:36.422Z,12.55
2023-04-27T03:47:03.804Z,12.51
2023-04-27T03:49:30.656Z,12.48
2023-04-27T03:51:57.436Z,12.47
2023-04-27T03:54:24.148Z,12.40
2023-04-27T03:56:50.865Z,12.39
2023-04-27T03:59:18.513Z,12.39
2023-04-27T04:01:49.308Z,12.31
2023-04-27T04:04:16.788Z,12.16
2023-04-27T04:06:43.601Z,12.20
2023-04-27T04:09:12.674Z,12.17
2023-04-27T04:11:40.069Z,12.11
2023-04-27T04:14:08.947Z,12.08
2023-04-27T04:16:35.609Z,12.08
2023-04-27T04:19:02.265Z,11.97
2023-04-27T04:21:29.089Z,12.01
2023-04-27T04:23:56.328Z,12.00
2023-04-27T04:26:23.557Z,11.96
2023-04-27T04:28:50.191Z,12.04
2023-04-27T04:31:18.184Z,12.08
2023-04-27T04:33:44.931Z,12.05
2023-04-27T04:36:11.654Z,11.99
2023-04-27T04:38:38.363Z,11.96
2023-04-27T04:41:05.278Z,12.03
2023-04-27T04:43:33.309Z,12.19
2023-04-27T04:46:03.568Z,12.18
2023-04-27T04:48:30.290Z,12.24
2023-04-27T04:50:57.227Z,12.32
2023-04-27T04:53:23.962Z,12.33
2023-04-27T04:55:50.722Z,12.37
2023-04-27T04:58:17.450Z,12.43
2023-04-27T05:00:44.321Z,12.59
2023-04-27T05:03:11.207Z,12.70
2023-04-27T05:05:37.996Z,12.72
2023-04-27T05:08:04.922Z,12.83
2023-04-27T05:10:31.821Z,12.84
2023-04-27T05:12:58.579Z,12.92
2023-04-27T05:15:25.310Z,12.94
2023-04-27T05:17:54.095Z,12.97
2023-04-27T05:20:21.209Z,12.92
2023-04-27T05:22:47.858Z,12.90
2023-04-27T05:25:14.499Z,12.83
2023-04-27T05:27:41.151Z,12.87
2023-04-27T05:30:08.346Z,12.79
2023-04-27T05:32:36.784Z,12.80
2023-04-27T05:35:04.919Z,12.92
2023-04-27T05:37:31.543Z,12.92
2023-04-27T05:39:58.172Z,12.97
2023-04-27T05:42:24.788Z,13.36
2023-04-27T05:44:51.369Z,13.98
2023-04-27T05:47:18.005Z,14.50
2023-04-27T05:49:44.632Z,15.15
2023-04-27T05:52:11.366Z,15.75
2023-04-27T05:54:38.227Z,15.93
2023-04-27T05:57:04.994Z,16.03
2023-04-27T05:59:31.757Z,16.42
2023-04-27T06:01:58.617Z,16.81
2023-04-27T06:04:25.699Z,17.04
2023-04-27T06:06:52.469Z,17.38
2023-04-27T06:09:19.094Z,17.87
2023-04-27T06:11:47.379Z,18.57
2023-04-27T06:14:14.085Z,19.05
2023-04-27T06:16:41.072Z,19.12
2023-04-27T06:19:07.764Z,19.46
2023-04-27T06:21:35.455Z,19.83
2023-04-27T06:24:02.362Z,20.02
2023-04-27T06:26:29.049Z,20.20
2023-04-27T06:28:56.224Z,20.51
2023-04-27T06:31:23.159Z,20.93
2023-04-27T06:33:49.892Z,21.14
2023-04-27T06:36:16.564Z,21.16
2023-04-27T06:38:43.247Z,22.01
2023-04-27T06:41:09.982Z,22.32
2023-04-27T06:43:38.116Z,22.53
2023-04-27T06:46:06.399Z,22.99
2023-04-27T06:48:33.045Z,23.03
2023-04-27T06:50:59.666Z,22.70
2023-04-27T06:53:26.883Z,21.36
2023-04-27T06:55:53.765Z,20.86
2023-04-27T06:58:20.357Z,20.19
2023-04-27T07:00:47.003Z,19.81
2023-04-27T07:03:14.437Z,19.38
2023-04-27T07:05:41.238Z,18.85
2023-04-27T07:08:08.818Z,18.86
2023-04-27T07:10:36.053Z,18.98
2023-04-27T07:13:02.775Z,18.98
2023-04-27T07:15:31.406Z,19.28
2023-04-27T07:17:58.070Z,19.43
2023-04-27T07:20:25.149Z,19.34
2023-04-27T07:22:51.887Z,19.05
2023-04-27T07:25:19.537Z,19.01
2023-04-27T07:27:46.820Z,18.74
2023-04-27T07:30:14.298Z,18.77
2023-04-27T07:32:44.274Z,19.16
2023-04-27T07:35:11.093Z,19.23
2023-04-27T07:37:38.371Z,19.18
2023-04-27T07:40:14.344Z,19.01
2023-04-27T07:42:42.031Z,19.01
2023-04-27T07:45:09.649Z,19.13
2023-04-27T07:47:37.122Z,19.38
2023-04-27T07:50:04.685Z,19.60
2023-04-27T07:52:31.450Z,19.81
2023-04-27T07:54:58.162Z,20.14
2023-04-27T07:57:24.862Z,19.78
2023-04-27T07:59:51.505Z,20.13
2023-04-27T08:02:20.119Z,20.54
2023-04-27T08:04:48.614Z,20.60
2023-04-27T08:07:20.068Z,20.59
2023-04-27T08:09:46.822Z,20.63
2023-04-27T08:12:13.489Z,19.88
2023-04-27T08:14:40.205Z,20.02
2023-04-27T08:17:07.029Z,19.73
2023-04-27T08:19:34.306Z,19.96
2023-04-27T08:22:01.061Z,20.20
2023-04-27T08:24:27.706Z,20.10
2023-04-27T08:26:54.441Z,20.23
2023-04-27T08:29:27.920Z,20.43
2023-04-27T08:31:58.645Z,20.70
2023-04-27T08:34:25.757Z,20.16
2023-04-27T08:36:53.105Z,20.55
2023-04-27T08:39:20.493Z,20.56
2023-04-27T08:41:47.128Z,20.91
2023-04-27T08:44:13.752Z,21.03
2023-04-27T08:46:40.927Z,21.47
2023-04-27T08:49:10.733Z,21.58
2023-04-27T08:51:37.454Z,22.03
2023-04-27T08:54:04.528Z,23.20
2023-04-27T08:56:31.362Z,23.78
2023-04-27T08:59:00.633Z,24.35
2023-04-27T09:01:27.714Z,24.69
2023-04-27T09:04:02.284Z,25.43
2023-04-27T09:06:33.560Z,25.59
2023-04-27T09:09:01.413Z,25.85
2023-04-27T09:11:35.921Z,26.07
2023-04-27T09:14:16.740Z,26.44
2023-04-27T09:16:44.494Z,27.29
2023-04-27T09:19:11.787Z,28.22
2023-04-27T09:21:38.649Z,28.08
2023-04-27T09:24:12.951Z,28.35
2023-04-27T09:26:42.059Z,28.24
2023-04-27T09:29:09.113Z,27.79
2023-04-27T09:31:36.588Z,28.19
2023-04-27T09:34:04.541Z,28.52
2023-04-27T09:36:32.592Z,28.61
2023-04-27T09:39:04.677Z,28.71
2023-04-27T09:41:33.251Z,28.71
2023-04-27T09:44:01.680Z,28.70
2023-04-27T09:46:29.825Z,29.34
2023-04-27T09:48:57.522Z,29.97
2023-04-27T09:51:24.380Z,30.26
2023-04-27T09:53:58.610Z,31.56
2023-04-27T09:56:34.626Z,33.80
2023-04-27T09:59:17.938Z,33.79
2023-04-27T10:01:51.919Z,35.51
2023-04-27T10:04:37.598Z,35.62
2023-04-27T10:07:09.961Z,34.99
2023-04-27T10:09:48.425Z,35.02
2023-04-27T10:12:42.703Z,36.95
2023-04-27T10:15:16.975Z,36.47
2023-04-27T10:17:53.179Z,36.15
2023-04-27T10:20:30.657Z,34.57
2023-04-27T10:22:58.543Z,33.20
2023-04-27T10:25:30.253Z,32.78
2023-04-27T10:28:01.911Z,32.55
2023-04-27T10:30:34.350Z,32.09
2023-04-27T10:33:07.366Z,30.34
2023-04-27T10:35:41.439Z,30.85
2023-04-27T10:38:11.136Z,30.90
2023-04-27T10:40:38.805Z,31.91
2023-04-27T10:43:16.145Z,31.27
2023-04-27T10:45:43.990Z,31.75
2023-04-27T10:48:15.756Z,32.85
2023-04-27T10:50:44.806Z,34.17
2023-04-27T10:53:11.609Z,36.08
2023-04-27T10:55:38.309Z,36.35
2023-04-27T10:58:05.231Z,37.53
2023-04-27T11:00:38.876Z,37.91
2023-04-27T11:03:24.257Z,38.92
2023-04-27T11:06:04.157Z,39.28
2023-04-27T11:08:32.571Z,39.50
2023-04-27T11:10:59.302Z,39.18
2023-04-27T11:13:28.196Z,39.34
2023-04-27T11:15:59.770Z,40.14
2023-04-27T11:18:29.783Z,39.23
2023-04-27T11:21:25.992Z,38.33
2023-04-27T11:23:53.390Z,38.23
2023-04-27T11:26:21.993Z,37.59
2023-04-27T11:29:14.096Z,38.61
2023-04-27T11:31:49.460Z,39.24
2023-04-27T11:34:22.726Z,39.29
2023-04-27T11:39:35.149Z,40.02
2023-04-27T11:42:18.298Z,40.03
2023-04-27T11:44:59.192Z,38.02
2023-04-27T11:47:27.836Z,35.51
2023-04-27T11:50:00.248Z,33.74
2023-04-27T11:52:35.871Z,34.00
2023-04-27T11:55:08.427Z,34.65
2023-04-27T11:57:36.086Z,35.32
2023-04-27T12:00:10.775Z,36.00
2023-04-27T12:02:42.084Z,34.89
2023-04-27T12:05:10.151Z,33.57
2023-04-27T12:07:37.001Z,31.82
2023-04-27T12:10:04.501Z,30.52
2023-04-27T12:12:31.233Z,29.40
2023-04-27T12:14:58.707Z,27.85
2023-04-27T12:17:25.433Z,27.82
2023-04-27T12:19:52.573Z,27.77
2023-04-27T12:22:19.399Z,28.14
2023-04-27T12:24:46.274Z,28.24
2023-04-27T12:27:13.009Z,28.62
2023-04-27T12:29:39.679Z,28.56
2023-04-27T12:32:06.672Z,28.35
2023-04-27T12:34:34.402Z,28.24
2023-04-27T12:37:01.078Z,28.86
2023-04-27T12:39:27.678Z,28.53
2023-04-27T12:41:54.288Z,28.41
2023-04-27T12:44:21.398Z,27.74
2023-04-27T12:46:48.660Z,27.56
2023-04-27T12:49:15.736Z,27.41
2023-04-27T12:51:42.732Z,27.75
2023-04-27T12:54:11.231Z,28.05
2023-04-27T12:56:38.058Z,28.03
2023-04-27T12:59:05.880Z,28.61
2023-04-27T13:01:33.217Z,28.49
2023-04-27T13:04:01.971Z,28.61
2023-04-27T13:06:31.132Z,28.05
2023-04-27T13:09:01.221Z,28.75
2023-04-27T13:11:28.041Z,29.02
2023-04-27T13:13:57.574Z,28.97
2023-04-27T13:16:25.538Z,28.73
2023-04-27T13:18:53.502Z,28.80
2023-04-27T13:21:20.510Z,28.65
2023-04-27T13:23:47.964Z,28.54
2023-04-27T13:26:16.209Z,28.61
2023-04-27T13:28:43.222Z,28.20
2023-04-27T13:31:10.305Z,27.59
2023-04-27T13:33:41.864Z,27.81
2023-04-27T13:36:12.713Z,27.43
2023-04-27T13:38:39.764Z,27.59
2023-04-27T13:41:06.873Z,27.50
2023-04-27T13:43:33.650Z,27.90
2023-04-27T13:46:03.618Z,28.42
2023-04-27T13:48:31.142Z,27.83
2023-04-27T13:50:58.157Z,27.95
2023-04-27T13:53:25.926Z,27.77
2023-04-27T13:55:57.181Z,27.67
2023-04-27T13:58:26.121Z,27.71
2023-04-27T14:00:53.818Z,27.52
2023-04-27T14:03:21.622Z,27.08
2023-04-27T14:05:50.940Z,27.41
2023-04-27T14:08:18.094Z,27.06
2023-04-27T14:10:45.568Z,26.73
2023-04-27T14:13:12.838Z,26.89
2023-04-27T14:15:39.667Z,26.74
2023-04-27T14:18:07.807Z,26.80
2023-04-27T14:20:35.629Z,26.66
2023-04-27T14:23:04.010Z,26.77
2023-04-27T14:25:32.819Z,26.69
2023-04-27T14:28:04.649Z,25.97
2023-04-27T14:30:32.587Z,26.14
2023-04-27T14:32:59.636Z,25.95
2023-04-27T14:35:27.599Z,26.05
2023-04-27T14:37:56.644Z,26.15
2023-04-27T14:40:23.261Z,26.11
2023-04-27T14:42:49.905Z,26.53
2023-04-27T14:45:18.236Z,26.07
2023-04-27T14:47:45.104Z,25.45
2023-04-27T14:50:12.033Z,25.62
2023-04-27T14:52:39.054Z,26.05
2023-04-27T14:55:07.027Z,26.42
2023-04-27T14:57:33.877Z,26.25
2023-04-27T15:00:00.909Z,25.98
2023-04-27T15:02:27.647Z,26.14
2023-04-27T15:04:54.470Z,26.94
2023-04-27T15:07:21.374Z,27.12
2023-04-27T15:09:48.219Z,27.27
2023-04-27T15:12:14.836Z,26.95
2023-04-27T15:14:41.548Z,26.68
2023-04-27T15:17:08.169Z,26.61
2023-04-27T15:19:34.901Z,26.87
2023-04-27T15:22:01.904Z,26.74
2023-04-27T15:24:28.806Z,26.50
2023-04-27T15:26:55.936Z,26.25
2023-04-27T15:29:22.818Z,26.20
2023-04-27T15:31:49.876Z,26.13
2023-04-27T15:34:16.749Z,26.45
2023-04-27T15:36:43.494Z,25.99
2023-04-27T15:39:10.426Z,25.65
2023-04-27T15:41:37.191Z,25.53
2023-04-27T15:44:05.173Z,25.57
2023-04-27T15:46:31.940Z,25.76
2023-04-27T15:48:58.617Z,26.00
2023-04-27T15:51:25.351Z,26.18
2023-04-27T15:53:51.993Z,26.22
2023-04-27T15:56:18.655Z,26.30
2023-04-27T15:58:47.903Z,26.74
2023-04-27T16:01:14.725Z,26.85
2023-04-27T16:03:41.511Z,26.40
2023-04-27T16:06:08.229Z,26.28
2023-04-27T16:08:34.948Z,26.31
2023-04-27T16:11:01.721Z,26.57
2023-04-27T16:13:28.555Z,26.72
2023-04-27T16:15:55.408Z,26.56
2023-04-27T16:18:22.121Z,26.41
2023-04-27T16:20:48.769Z,25.95
2023-04-27T16:23:16.222Z,25.88
2023-04-27T16:25:42.873Z,25.70
2023-04-27T16:28:09.658Z,25.42
2023-04-27T16:30:37.868Z,25.26
2023-04-27T16:33:04.740Z,25.19
2023-04-27T16:35:33.430Z,25.44
2023-04-27T16:38:00.276Z,25.51
2023-04-27T16:40:26.995Z,25.53
2023-04-27T16:42:53.691Z,25.33
2023-04-27T16:45:20.544Z,24.80
2023-04-27T16:47:47.632Z,24.82
2023-04-27T16:50:14.482Z,24.72
2023-04-27T16:52:41.136Z,24.70
2023-04-27T16:55:08.369Z,24.68
2023-04-27T16:57:35.704Z,24.69
2023-04-27T17:00:02.399Z,24.63
2023-04-27T17:02:29.183Z,24.56
2023-04-27T17:04:56.118Z,24.64
2023-04-27T17:07:22.820Z,24.52
2023-04-27T17:09:49.453Z,24.46
2023-04-27T17:12:16.777Z,24.47
2023-04-27T17:14:43.496Z,24.36
2023-04-27T17:17:10.503Z,24.29
2023-04-27T17:19:37.210Z,24.26
2023-04-27T17:22:04.324Z,24.26
2023-04-27T17:24:30.999Z,24.12
2023-04-27T17:26:57.634Z,24.21
2023-04-27T17:29:24.364Z,24.15
2023-04-27T17:31:51.025Z,24.18
2023-04-27T17:34:17.806Z,24.09
2023-04-27T17:36:45.646Z,24.05
2023-04-27T17:39:13.460Z,24.16
2023-04-27T17:41:40.687Z,24.01
2023-04-27T17:44:07.362Z,23.78
2023-04-27T17:46:34.200Z,23.60
2023-04-27T17:49:00.934Z,23.40
2023-04-27T17:51:27.569Z,23.18
2023-04-27T17:53:54.240Z,23.19
2023-04-27T17:56:20.910Z,23.25
2023-04-27T17:58:47.542Z,23.23
2023-04-27T18:01:14.301Z,23.21
2023-04-27T18:03:42.123Z,23.24
2023-04-27T18:06:09.177Z,23.23
2023-04-27T18:08:35.932Z,23.35
2023-04-27T18:11:02.744Z,23.34
2023-04-27T18:13:31.747Z,23.36
2023-04-27T18:15:59.222Z,23.37
2023-04-27T18:18:26.773Z,23.33
2023-04-27T18:20:53.514Z,23.29
2023-04-27T18:23:20.624Z,23.20
2023-04-27T18:25:47.342Z,23.07
2023-04-27T18:28:14.169Z,23.00
2023-04-27T18:30:41.445Z,22.89
2023-04-27T18:33:08.217Z,22.92
2023-04-27T18:35:35.056Z,22.91
2023-04-27T18:38:01.686Z,22.81
2023-04-27T18:40:28.414Z,22.78
2023-04-27T18:42:55.013Z,22.77
2023-04-27T18:45:21.707Z,22.75
2023-04-27T18:47:48.468Z,22.72
2023-04-27T18:50:15.205Z,22.69
2023-04-27T18:52:41.888Z,22.75
2023-04-27T18:55:09.195Z,22.68
2023-04-27T18:57:36.139Z,22.61
2023-04-27T19:00:08.078Z,22.57
2023-04-27T19:02:35.040Z,22.53
2023-04-27T19:07:34.203Z,22.27
2023-04-27T19:10:00.848Z,22.21
2023-04-27T19:12:27.500Z,22.19
2023-04-27T19:14:54.148Z,22.15
2023-04-27T19:17:20.981Z,21.99
2023-04-27T19:19:48.394Z,21.95
2023-04-27T19:22:15.102Z,21.88
2023-04-27T19:24:41.763Z,21.90
2023-04-27T19:27:09.050Z,21.86
2023-04-27T19:29:49.532Z,21.76
2023-04-27T19:32:16.317Z,21.85
2023-04-27T19:34:42.981Z,21.88
2023-04-27T19:37:09.656Z,21.80
2023-04-27T19:39:36.404Z,21.78
2023-04-27T19:42:03.161Z,21.80
2023-04-27T19:44:29.928Z,21.73
2023-04-27T19:46:56.841Z,21.57
2023-04-27T19:49:23.503Z,21.57
2023-04-27T19:51:50.217Z,21.64
2023-04-27T19:54:17.111Z,21.60
2023-04-27T19:56:43.891Z,21.52
2023-04-27T19:59:10.554Z,21.46
2023-04-27T20:01:37.264Z,21.47
2023-04-27T20:04:04.155Z,21.48
2023-04-27T20:06:32.267Z,21.49
2023-04-27T20:08:58.917Z,21.42
2023-04-27T20:11:25.689Z,21.46
2023-04-27T20:13:52.280Z,21.42
2023-04-27T20:16:19.803Z,21.27
2023-04-27T20:18:46.632Z,21.25
2023-04-27T20:21:13.423Z,21.25
2023-04-27T20:23:40.127Z,21.24
2023-04-27T20:26:06.732Z,21.25
2023-04-27T20:28:33.631Z,21.33
2023-04-27T20:31:00.430Z,21.31
2023-04-27T20:33:27.064Z,21.33
2023-04-27T20:35:55.461Z,21.35
2023-04-27T20:38:23.696Z,21.34
2023-04-27T20:40:53.413Z,21.33
2023-04-27T20:43:21.088Z,21.25
2023-04-27T20:45:47.860Z,20.99
2023-04-27T20:48:14.565Z,20.83
2023-04-27T20:50:41.329Z,20.80
2023-04-27T20:53:08.482Z,20.83
2023-04-27T20:55:35.116Z,20.85
2023-04-27T20:58:01.794Z,20.83
2023-04-27T21:00:28.445Z,20.72
2023-04-27T21:02:55.220Z,20.62
2023-04-27T21:05:21.951Z,20.53
2023-04-27T21:07:48.749Z,20.61
2023-04-27T21:10:16.793Z,20.64
2023-04-27T21:12:43.906Z,20.57
2023-04-27T21:15:10.889Z,20.68
2023-04-27T21:17:37.713Z,20.69
2023-04-27T21:20:04.771Z,20.57
2023-04-27T21:22:31.815Z,20.59
2023-04-27T21:24:58.406Z,20.68
2023-04-27T21:27:25.117Z,20.60
2023-04-27T21:29:51.942Z,20.61
2023-04-27T21:32:18.545Z,20.57
2023-04-27T21:34:45.276Z,20.52
2023-04-27T21:37:11.984Z,20.51
2023-04-27T21:39:38.665Z,20.57
2023-04-27T21:42:05.406Z,20.62
2023-04-27T21:44:32.046Z,20.63
2023-04-27T21:46:58.824Z,20.68
2023-04-27T21:49:26.177Z,20.66
2023-04-27T21:51:52.922Z,20.75
2023-04-27T21:54:19.563Z,20.74
2023-04-27T21:56:46.284Z,20.64
2023-04-27T21:59:12.914Z,20.53
2023-04-27T22:01:39.762Z,20.56
2023-04-27T22:04:06.854Z,20.50
2023-04-27T22:06:33.602Z,20.53
2023-04-27T22:09:00.773Z,20.54
2023-04-27T22:11:27.559Z,20.48
2023-04-27T22:13:54.278Z,20.55
2023-04-27T22:16:22.085Z,20.62
2023-04-27T22:18:48.780Z,20.58
2023-04-27T22:21:15.568Z,20.47
2023-04-27T22:23:42.218Z,20.53
2023-04-27T22:26:09.090Z,20.53
2023-04-27T22:28:35.946Z,20.49
2023-04-27T22:31:03.551Z,20.41
2023-04-27T22:33:31.455Z,20.46
2023-04-27T22:35:59.260Z,20.39
2023-04-27T22:38:26.033Z,20.29
2023-04-27T22:40:52.661Z,20.31
2023-04-27T22:43:19.336Z,20.21
2023-04-27T22:45:45.994Z,20.20
2023-04-27T22:48:12.909Z,20.15
2023-04-27T22:50:39.548Z,20.19
2023-04-27T22:53:06.420Z,20.12
2023-04-27T22:55:33.089Z,20.09
2023-04-27T22:57:59.710Z,20.03
2023-04-27T23:00:26.662Z,20.02
2023-04-27T23:02:53.580Z,19.91
2023-04-27T23:05:20.374Z,19.86
2023-04-27T23:07:47.027Z,19.80
2023-04-27T23:10:15.062Z,19.88
2023-04-27T23:12:41.820Z,19.68
2023-04-27T23:15:09.505Z,19.68
2023-04-27T23:17:36.485Z,19.30
2023-04-27T23:20:24.019Z,19.39
2023-04-27T23:22:53.944Z,19.50
2023-04-27T23:25:20.646Z,19.50
2023-04-27T23:27:48.086Z,19.37
2023-04-27T23:30:16.090Z,19.46
2023-04-27T23:32:43.197Z,19.53
2023-04-27T23:35:10.016Z,19.34
2023-04-27T23:37:36.617Z,19.24
2023-04-27T23:40:04.380Z,19.17
2023-04-27T23:42:31.127Z,19.16
2023-04-27T23:44:58.343Z,19.19
2023-04-27T23:47:25.112Z,19.21
2023-04-27T23:49:51.913Z,19.16
2023-04-27T23:52:18.640Z,18.96
2023-04-27T23:54:45.474Z,19.07
2023-04-27T23:57:12.072Z,19.02
2023-04-27T23:59:38.699Z,18.87
